Time;durP1;ratioP1;P1;durP2;ratioP2;P2;SDS_P1;SDS_P2;PMS_P1;PMS_P2;Temp;Humidity;BMP_temperature;BMP_pressure;BME280_temperature;BME280_humidity;BME280_pressure;Samples;Min_cycle;Max_cycle;Signal;HPM_P1;HPM_P2
2021/09/02 00:01:37;;;;;;;30.13;15.53;;;11.50;99.90;;;;;;5052695;28;20206;-62
2021/09/02 00:04:04;;;;;;;27.47;14.97;;;11.60;99.90;;;;;;5052502;28;20666;-62
2021/09/02 00:06:32;;;;;;;27.67;15.70;;;11.50;99.90;;;;;;5052708;28;20666;-63
2021/09/02 00:08:59;;;;;;;35.77;15.87;;;11.50;99.90;;;;;;5052577;28;20201;-62
2021/09/02 00:11:25;;;;;;;36.50;16.20;;;11.50;99.90;;;;;;5051303;28;20282;-63
2021/09/02 00:13:52;;;;;;;35.87;16.83;;;11.50;99.90;;;;;;5052390;28;20232;-62
2021/09/02 00:16:19;;;;;;;35.53;16.03;;;11.50;99.90;;;;;;5052488;28;20206;-62
2021/09/02 00:18:45;;;;;;;35.77;16.57;;;11.50;99.90;;;;;;5052284;28;20742;-62
2021/09/02 00:21:12;;;;;;;37.50;16.97;;;11.50;1.00;;;;;;5052291;28;20202;-62
2021/09/02 00:23:40;;;;;;;34.17;16.13;;;11.50;1.00;;;;;;5052152;28;20357;-62
2021/09/02 00:26:06;;;;;;;35.70;16.10;;;11.50;1.00;;;;;;5052176;28;20264;-62
2021/09/02 00:28:33;;;;;;;31.17;16.27;;;11.50;1.00;;;;;;5052148;28;20207;-62
2021/09/02 00:31:00;;;;;;;35.40;15.40;;;11.50;1.00;;;;;;5052013;28;20710;-63
2021/09/02 00:33:26;;;;;;;37.53;17.20;;;11.40;1.00;;;;;;5051847;28;20222;-62
2021/09/02 00:35:53;;;;;;;37.73;16.70;;;11.40;1.00;;;;;;5052031;28;20565;-62
2021/09/02 00:38:19;;;;;;;35.63;16.50;;;11.40;1.00;;;;;;5051756;28;20209;-62
2021/09/02 00:40:48;;;;;;;37.37;17.00;;;11.40;1.00;;;;;;5052166;28;20621;-63
2021/09/02 00:43:14;;;;;;;35.77;17.10;;;11.40;1.00;;;;;;5051845;28;20225;-62
2021/09/02 00:45:41;;;;;;;38.00;16.73;;;11.40;1.00;;;;;;5051990;28;20210;-62
2021/09/02 00:48:07;;;;;;;37.10;17.90;;;11.40;1.00;;;;;;5051975;28;20240;-62
2021/09/02 00:50:35;;;;;;;39.97;17.53;;;11.30;1.00;;;;;;5051807;28;20221;-62
2021/09/02 00:53:02;;;;;;;42.53;17.20;;;11.40;1.00;;;;;;5051741;28;20226;-61
2021/09/02 00:55:30;;;;;;;33.10;16.77;;;11.40;1.00;;;;;;5051708;28;20208;-61
2021/09/02 00:57:59;;;;;;;33.00;17.43;;;11.40;1.00;;;;;;5051864;28;20203;-62
2021/09/02 01:00:26;;;;;;;40.00;18.67;;;11.30;1.00;;;;;;5051719;28;20611;-62
2021/09/02 01:02:53;;;;;;;38.33;17.37;;;11.30;1.00;;;;;;5051524;28;20234;-62
2021/09/02 01:05:20;;;;;;;37.80;19.40;;;11.30;1.00;;;;;;5051306;28;20721;-62
2021/09/02 01:07:48;;;;;;;40.83;19.53;;;11.30;1.00;;;;;;5051627;28;20744;-61
2021/09/02 01:10:15;;;;;;;44.17;18.87;;;11.30;1.00;;;;;;5051483;28;20641;-62
2021/09/02 01:12:44;;;;;;;40.37;19.83;;;11.30;1.00;;;;;;5051756;28;20222;-62
2021/09/02 01:15:15;;;;;;;47.80;19.83;;;11.30;1.00;;;;;;5051455;28;20210;-62
2021/09/02 01:17:43;;;;;;;44.90;19.07;;;11.30;1.00;;;;;;5051718;28;20273;-61
2021/09/02 01:20:13;;;;;;;41.30;18.97;;;11.30;1.00;;;;;;5051639;28;20205;-62
2021/09/02 01:22:41;;;;;;;44.93;19.20;;;11.30;1.00;;;;;;5053971;28;20229;-62
2021/09/02 01:25:14;;;;;;;43.17;19.43;;;11.30;1.00;;;;;;5055324;28;20725;-62
2021/09/02 01:27:41;;;;;;;40.00;18.57;;;11.20;1.00;;;;;;5055799;28;20209;-61
2021/09/02 01:30:11;;;;;;;40.23;18.10;;;11.20;1.00;;;;;;5055540;28;20202;-61
2021/09/02 01:32:39;;;;;;;34.53;17.87;;;11.20;1.00;;;;;;5055253;28;20221;-62
2021/09/02 01:35:08;;;;;;;41.97;19.50;;;11.20;1.00;;;;;;5055291;28;20206;-61
2021/09/02 01:37:41;;;;;;;38.30;19.00;;;11.20;1.00;;;;;;5055492;28;20209;-61
2021/09/02 01:40:13;;;;;;;39.37;17.53;;;11.20;1.00;;;;;;5055334;28;20209;-61
2021/09/02 01:42:40;;;;;;;36.00;17.70;;;11.10;1.00;;;;;;5055008;28;20221;-61
2021/09/02 01:45:07;;;;;;;33.63;17.33;;;11.10;1.00;;;;;;5054910;28;20201;-61
2021/09/02 01:47:34;;;;;;;36.37;17.07;;;11.10;1.00;;;;;;5055244;28;20205;-62
2021/09/02 01:50:06;;;;;;;35.33;18.20;;;11.10;1.00;;;;;;5055231;28;20209;-62
2021/09/02 01:52:33;;;;;;;36.20;18.80;;;11.10;1.00;;;;;;5055073;28;20616;-62
2021/09/02 01:55:00;;;;;;;44.70;18.93;;;11.00;1.00;;;;;;5054884;28;20263;-61
2021/09/02 01:57:28;;;;;;;38.13;18.60;;;11.00;1.00;;;;;;5054685;28;20244;-61
2021/09/02 01:59:55;;;;;;;44.30;17.97;;;11.00;1.00;;;;;;5055086;28;20206;-61
2021/09/02 02:02:21;;;;;;;37.23;18.67;;;11.00;1.00;;;;;;5054617;28;20675;-61
2021/09/02 02:04:48;;;;;;;39.07;18.97;;;11.00;1.00;;;;;;5054700;28;20256;-62
2021/09/02 02:07:15;;;;;;;52.97;21.97;;;11.00;1.00;;;;;;5054706;28;20283;-62
2021/09/02 02:09:42;;;;;;;49.23;19.60;;;11.00;1.00;;;;;;5054781;28;20249;-62
2021/09/02 02:12:09;;;;;;;53.27;20.43;;;11.00;1.00;;;;;;5054185;28;20226;-62
2021/09/02 02:14:37;;;;;;;56.90;21.23;;;10.90;1.00;;;;;;5054852;28;20201;-61
2021/09/02 02:17:04;;;;;;;55.30;20.67;;;10.90;1.00;;;;;;5054580;28;20255;-62
2021/09/02 02:19:31;;;;;;;55.07;21.67;;;10.90;1.00;;;;;;5054514;28;20211;-62
2021/09/02 02:21:58;;;;;;;50.67;21.00;;;10.90;1.00;;;;;;5054489;28;20206;-62
2021/09/02 02:24:24;;;;;;;51.17;19.60;;;10.90;1.00;;;;;;5054209;28;20784;-62
2021/09/02 02:26:51;;;;;;;45.10;19.57;;;10.90;1.00;;;;;;5054563;28;20217;-62
2021/09/02 02:29:17;;;;;;;43.77;18.97;;;10.90;1.00;;;;;;5054528;28;20625;-62
2021/09/02 02:31:46;;;;;;;46.53;21.47;;;10.90;1.00;;;;;;5054361;28;20642;-62
2021/09/02 02:34:12;;;;;;;50.20;20.90;;;10.90;1.00;;;;;;5053071;28;20225;-62
2021/09/02 02:36:39;;;;;;;49.13;20.33;;;10.90;1.00;;;;;;5054400;28;20275;-62
2021/09/02 02:39:05;;;;;;;59.73;22.57;;;10.90;1.00;;;;;;5054205;28;20619;-62
2021/09/02 02:41:32;;;;;;;59.37;22.93;;;10.90;1.00;;;;;;5054260;28;20205;-62
2021/09/02 02:43:59;;;;;;;62.00;24.30;;;10.90;1.00;;;;;;5053935;28;20251;-63
2021/09/02 02:46:26;;;;;;;59.50;22.57;;;10.90;1.00;;;;;;5054150;28;20256;-62
2021/09/02 02:48:55;;;;;;;56.63;22.20;;;11.00;1.00;;;;;;5053970;28;20205;-62
2021/09/02 02:51:21;;;;;;;55.90;22.87;;;11.00;1.00;;;;;;5053902;28;20228;-62
2021/09/02 02:53:48;;;;;;;56.97;21.67;;;11.00;1.00;;;;;;5053697;28;20227;-62
2021/09/02 02:56:14;;;;;;;60.13;24.23;;;11.00;1.00;;;;;;5054035;28;20276;-62
2021/09/02 02:58:41;;;;;;;61.47;22.70;;;11.00;1.00;;;;;;5053909;28;20272;-63
2021/09/02 03:01:08;;;;;;;65.70;23.47;;;11.00;1.00;;;;;;5053731;28;20202;-62
2021/09/02 03:03:34;;;;;;;65.80;23.70;;;11.00;1.00;;;;;;5053351;28;20268;-62
2021/09/02 03:06:02;;;;;;;59.83;22.73;;;11.00;1.00;;;;;;5053785;28;20213;-61
2021/09/02 03:08:29;;;;;;;59.53;22.00;;;11.00;4.40;;;;;;5053555;28;20209;-62
2021/09/02 03:10:56;;;;;;;58.13;23.33;;;11.00;7.90;;;;;;5053583;28;20272;-62
2021/09/02 03:13:22;;;;;;;60.10;22.67;;;11.00;14.80;;;;;;5053511;28;20222;-62
2021/09/02 03:15:49;;;;;;;59.20;24.07;;;11.10;15.40;;;;;;5053472;28;20205;-62
2021/09/02 03:18:16;;;;;;;62.40;22.33;;;11.10;17.80;;;;;;5053447;28;20205;-63
2021/09/02 03:20:42;;;;;;;56.87;22.37;;;11.00;23.70;;;;;;5053086;28;20695;-62
2021/09/02 03:23:10;;;;;;;63.07;22.73;;;11.00;28.60;;;;;;5053498;28;20288;-62
2021/09/02 03:25:37;;;;;;;55.47;21.40;;;11.00;31.20;;;;;;5053352;28;20556;-61
2021/09/02 03:28:04;;;;;;;51.50;21.13;;;11.00;36.10;;;;;;5053195;28;20205;-61
2021/09/02 03:30:31;;;;;;;57.30;22.30;;;11.00;34.50;;;;;;5053267;28;20275;-63
2021/09/02 03:32:57;;;;;;;55.37;21.80;;;11.00;37.40;;;;;;5053091;28;20256;-62
2021/09/02 03:35:25;;;;;;;55.10;21.37;;;11.00;37.30;;;;;;5053143;28;20935;-61
2021/09/02 03:37:52;;;;;;;49.57;20.63;;;11.00;36.50;;;;;;5053171;28;20210;-61
2021/09/02 03:40:20;;;;;;;54.53;22.10;;;11.00;32.40;;;;;;5053134;28;20205;-62
2021/09/02 03:42:46;;;;;;;48.10;19.50;;;11.00;31.10;;;;;;5052927;28;20225;-62
2021/09/02 03:45:13;;;;;;;50.07;20.43;;;11.00;32.00;;;;;;5052755;28;20630;-62
2021/09/02 03:47:47;;;;;;;49.17;21.17;;;11.00;27.20;;;;;;5052771;28;20213;-62
2021/09/02 03:50:13;;;;;;;49.13;20.13;;;11.00;26.40;;;;;;5052962;28;20201;-61
2021/09/02 03:52:40;;;;;;;54.57;21.80;;;11.00;27.50;;;;;;5052950;28;20283;-61
2021/09/02 03:55:07;;;;;;;48.00;20.23;;;11.00;26.00;;;;;;5052647;28;20206;-62
2021/09/02 03:57:35;;;;;;;47.43;20.80;;;11.00;29.50;;;;;;5052828;28;20213;-61
2021/09/02 04:00:03;;;;;;;53.10;19.83;;;11.00;31.10;;;;;;5052753;28;20279;-61
2021/09/02 04:02:30;;;;;;;54.87;19.80;;;10.90;33.80;;;;;;5052281;28;20584;-61
2021/09/02 04:04:56;;;;;;;52.77;20.20;;;10.90;28.90;;;;;;5052557;28;20209;-61
2021/09/02 04:07:23;;;;;;;57.47;21.13;;;10.90;28.00;;;;;;5052610;28;20205;-62
2021/09/02 04:09:50;;;;;;;51.93;20.97;;;10.90;25.00;;;;;;5052530;28;20206;-62
2021/09/02 04:12:16;;;;;;;48.57;20.60;;;10.90;23.40;;;;;;5052225;28;20222;-61
2021/09/02 04:14:44;;;;;;;47.73;19.60;;;10.90;21.00;;;;;;5052110;28;20214;-62
2021/09/02 04:17:11;;;;;;;46.53;20.00;;;10.80;17.30;;;;;;5052157;28;20263;-61
2021/09/02 04:19:37;;;;;;;46.90;19.77;;;10.80;17.00;;;;;;5052398;28;20255;-61
2021/09/02 04:22:05;;;;;;;41.13;19.57;;;10.80;11.20;;;;;;5052351;28;20643;-62
2021/09/02 04:24:31;;;;;;;43.83;19.23;;;10.80;2.70;;;;;;5051951;28;20682;-62
2021/09/02 04:26:58;;;;;;;43.80;19.40;;;10.80;1.00;;;;;;5052235;28;20244;-61
2021/09/02 04:29:25;;;;;;;36.03;17.97;;;10.70;1.00;;;;;;5052058;28;20260;-61
2021/09/02 04:31:53;;;;;;;43.20;18.67;;;10.70;1.00;;;;;;5052356;28;20225;-61
2021/09/02 04:34:19;;;;;;;38.13;17.43;;;10.70;1.00;;;;;;5051611;28;20718;-62
2021/09/02 04:36:46;;;;;;;36.83;17.93;;;10.70;1.00;;;;;;5052273;28;20363;-62
2021/09/02 04:39:13;;;;;;;40.53;19.50;;;10.70;1.00;;;;;;5052286;28;20610;-61
2021/09/02 04:41:39;;;;;;;35.67;17.83;;;10.70;1.00;;;;;;5051781;28;20206;-61
2021/09/02 04:44:06;;;;;;;35.87;16.90;;;10.70;1.00;;;;;;5051599;28;20283;-62
2021/09/02 04:46:32;;;;;;;46.73;19.97;;;10.70;1.00;;;;;;5051742;28;20264;-62
2021/09/02 04:49:00;;;;;;;39.17;18.83;;;10.70;1.00;;;;;;5052263;28;20263;-62
2021/09/02 04:51:27;;;;;;;44.53;18.10;;;10.70;1.00;;;;;;5051644;28;20714;-61
2021/09/02 04:53:54;;;;;;;43.00;17.87;;;10.70;1.00;;;;;;5051767;28;20280;-61
2021/09/02 04:56:20;;;;;;;40.63;19.53;;;10.70;1.00;;;;;;5051542;28;20210;-62
2021/09/02 04:58:47;;;;;;;53.67;19.57;;;10.70;1.00;;;;;;5051697;28;20205;-61
2021/09/02 05:01:14;;;;;;;49.00;19.70;;;10.60;1.00;;;;;;5051928;28;20209;-62
2021/09/02 05:03:40;;;;;;;42.53;19.03;;;10.60;1.00;;;;;;5051465;28;20289;-62
2021/09/02 05:06:08;;;;;;;39.50;18.93;;;10.70;1.00;;;;;;5051513;28;20213;-63
2021/09/02 05:08:35;;;;;;;37.70;17.17;;;10.70;1.00;;;;;;5051814;28;20625;-61
2021/09/02 05:11:02;;;;;;;43.37;19.17;;;10.70;1.00;;;;;;5051606;28;20201;-60
2021/09/02 05:13:28;;;;;;;41.53;18.20;;;10.70;1.00;;;;;;5051147;28;20283;-61
2021/09/02 05:15:55;;;;;;;41.20;19.03;;;10.70;1.00;;;;;;5051765;28;20261;-62
2021/09/02 05:18:21;;;;;;;39.33;17.93;;;10.70;1.00;;;;;;5051626;28;20210;-61
2021/09/02 05:20:48;;;;;;;47.00;19.30;;;10.70;1.00;;;;;;5051705;28;20210;-62
2021/09/02 05:23:16;;;;;;;39.93;18.87;;;10.80;1.00;;;;;;5051370;28;20226;-62
2021/09/02 05:25:43;;;;;;;36.17;17.87;;;10.80;1.00;;;;;;5051524;28;20210;-61
2021/09/02 05:28:09;;;;;;;41.53;19.30;;;10.80;1.00;;;;;;5051336;28;20206;-62
2021/09/02 05:30:36;;;;;;;40.87;18.53;;;10.80;1.00;;;;;;5051484;28;20674;-61
2021/09/02 05:33:03;;;;;;;45.63;18.33;;;10.90;1.00;;;;;;5051672;28;20225;-62
2021/09/02 05:35:29;;;;;;;39.20;18.70;;;10.90;1.00;;;;;;5051569;28;20617;-62
2021/09/02 05:37:56;;;;;;;43.23;18.53;;;10.90;1.00;;;;;;5051601;28;20585;-61
2021/09/02 05:40:24;;;;;;;40.43;19.30;;;10.90;1.00;;;;;;5051520;28;20209;-61
2021/09/02 05:42:51;;;;;;;47.53;19.43;;;11.00;1.00;;;;;;5051632;28;20225;-61
2021/09/02 05:45:17;;;;;;;38.07;19.33;;;11.00;5.40;;;;;;5051653;28;20258;-62
2021/09/02 05:47:44;;;;;;;40.70;19.30;;;11.10;9.60;;;;;;5051418;28;20210;-62
2021/09/02 05:50:11;;;;;;;45.20;19.27;;;11.10;8.10;;;;;;5051201;28;20238;-62
2021/09/02 05:52:37;;;;;;;38.67;18.00;;;11.20;10.00;;;;;;5051046;28;20707;-62
2021/09/02 05:55:05;;;;;;;38.77;18.77;;;11.20;12.20;;;;;;5050886;28;20264;-62
2021/09/02 05:57:33;;;;;;;40.20;19.93;;;11.30;15.50;;;;;;5051413;28;20209;-62
2021/09/02 05:59:59;;;;;;;43.17;20.00;;;11.30;20.20;;;;;;5051253;28;20202;-62
2021/09/02 06:02:26;;;;;;;41.93;19.97;;;11.30;29.40;;;;;;5051257;28;20235;-62
2021/09/02 06:04:53;;;;;;;44.27;19.50;;;11.40;34.50;;;;;;5051012;28;20213;-62
2021/09/02 06:07:19;;;;;;;46.43;20.40;;;11.50;44.30;;;;;;5051247;28;20201;-62
2021/09/02 06:09:46;;;;;;;45.63;20.80;;;11.50;53.10;;;;;;5052958;28;20845;-62
2021/09/02 06:12:12;;;;;;;51.77;22.57;;;11.50;68.60;;;;;;5054710;28;20225;-62
2021/09/02 06:14:40;;;;;;;47.23;20.73;;;11.60;91.60;;;;;;5054323;28;20207;-62
2021/09/02 06:17:07;;;;;;;50.27;21.40;;;11.70;96.60;;;;;;5054584;28;20259;-62
2021/09/02 06:19:34;;;;;;;51.67;20.90;;;11.80;99.50;;;;;;5054477;28;20206;-62
2021/09/02 06:22:00;;;;;;;49.73;21.80;;;11.80;99.90;;;;;;5054416;28;20248;-62
2021/09/02 06:24:27;;;;;;;44.83;21.33;;;11.90;99.90;;;;;;5054496;28;20234;-62
2021/09/02 06:26:54;;;;;;;48.97;23.50;;;12.00;99.90;;;;;;5054586;28;20623;-62
2021/09/02 06:29:20;;;;;;;48.63;23.10;;;12.10;99.90;;;;;;5054828;28;20209;-62
2021/09/02 06:31:48;;;;;;;40.23;21.77;;;12.20;99.90;;;;;;5054326;28;20211;-62
2021/09/02 06:34:15;;;;;;;41.03;21.37;;;12.30;99.90;;;;;;5047414;28;20264;-61
2021/09/02 06:36:42;;;;;;;43.50;20.97;;;12.30;99.90;;;;;;5034072;28;20266;-59
2021/09/02 06:39:08;;;;;;;37.57;20.27;;;12.40;99.90;;;;;;5034161;28;20208;-60
2021/09/02 06:41:35;;;;;;;38.17;20.27;;;12.40;99.90;;;;;;5034449;28;20306;-61
2021/09/02 06:44:01;;;;;;;41.93;20.17;;;12.50;99.90;;;;;;5034025;28;20276;-62
2021/09/02 06:46:28;;;;;;;38.33;19.70;;;12.60;99.90;;;;;;5034286;28;20210;-62
2021/09/02 06:48:57;;;;;;;34.07;17.93;;;12.70;99.90;;;;;;5034027;28;20214;-62
2021/09/02 06:51:23;;;;;;;39.03;18.47;;;12.70;99.90;;;;;;5033535;28;20733;-62
2021/09/02 06:53:50;;;;;;;33.73;18.00;;;12.70;99.90;;;;;;5033874;28;20230;-62
2021/09/02 06:56:17;;;;;;;35.00;18.10;;;12.80;92.20;;;;;;5034167;28;20617;-60
2021/09/02 06:58:44;;;;;;;33.80;17.93;;;12.80;21.00;;;;;;5033886;28;20261;-62
2021/09/02 07:01:13;;;;;;;34.90;17.77;;;12.90;1.00;;;;;;5033899;28;20241;-63
2021/09/02 07:03:40;;;;;;;32.87;17.33;;;12.90;1.00;;;;;;5033308;28;20236;-63
2021/09/02 07:06:08;;;;;;;30.63;17.83;;;13.00;1.00;;;;;;5042204;28;20209;-61
2021/09/02 07:08:36;;;;;;;34.10;19.63;;;13.00;1.00;;;;;;5046856;28;20686;-61
2021/09/02 07:11:03;;;;;;;35.53;19.63;;;13.00;1.00;;;;;;5053365;28;20212;-61
2021/09/02 07:13:30;;;;;;;30.20;19.17;;;13.20;1.00;;;;;;5052694;28;20287;-62
2021/09/02 07:15:56;;;;;;;34.80;18.07;;;13.20;1.00;;;;;;5053101;28;20259;-62
2021/09/02 07:18:23;;;;;;;31.20;16.77;;;13.40;1.00;;;;;;5053361;28;20279;-61
2021/09/02 07:20:50;;;;;;;31.07;17.07;;;13.40;58.00;;;;;;5052727;28;20209;-61
2021/09/02 07:23:18;;;;;;;33.03;16.80;;;13.40;1.00;;;;;;5053124;28;20229;-61
2021/09/02 07:25:44;;;;;;;30.00;17.23;;;13.50;99.90;;;;;;5052877;28;20216;-62
2021/09/02 07:28:11;;;;;;;25.03;15.17;;;13.50;99.90;;;;;;5053043;28;20259;-60
2021/09/02 07:30:40;;;;;;;27.80;17.00;;;13.50;99.90;;;;;;5050655;28;20206;-60
2021/09/02 07:33:07;;;;;;;27.20;16.27;;;13.60;1.00;;;;;;5033500;28;20321;-62
2021/09/02 07:35:33;;;;;;;29.77;16.73;;;13.50;99.90;;;;;;5032380;28;20206;-61
2021/09/02 07:38:00;;;;;;;30.17;16.57;;;13.60;99.90;;;;;;5032977;28;20210;-62
2021/09/02 07:40:29;;;;;;;25.93;16.20;;;13.60;1.00;;;;;;5032768;28;20212;-64
2021/09/02 07:42:55;;;;;;;27.23;16.63;;;13.80;99.90;;;;;;5032503;28;20226;-65
2021/09/02 07:45:22;;;;;;;29.63;16.03;;;14.00;24.60;;;;;;5032061;28;20206;-64
2021/09/02 07:47:49;;;;;;;25.17;14.47;;;14.10;1.00;;;;;;5032925;28;20224;-64
2021/09/02 07:50:16;;;;;;;28.47;14.70;;;14.40;99.90;;;;;;5032551;28;20217;-64
2021/09/02 07:52:42;;;;;;;21.33;13.97;;;14.50;99.90;;;;;;5032368;28;20284;-63
2021/09/02 07:55:11;;;;;;;27.40;14.73;;;14.60;1.00;;;;;;5032452;28;20210;-64
2021/09/02 07:57:43;;;;;;;25.93;15.10;;;14.60;99.90;;;;;;5032605;28;20241;-64
2021/09/02 08:00:10;;;;;;;30.23;16.00;;;14.60;1.00;;;;;;5032647;28;20199;-63
2021/09/02 08:02:37;;;;;;;26.60;15.60;;;14.50;1.00;;;;;;5032198;28;20266;-64
2021/09/02 08:05:04;;;;;;;25.43;16.23;;;14.60;99.90;;;;;;5032117;28;20336;-64
2021/09/02 08:07:31;;;;;;;26.13;15.43;;;14.60;50.20;;;;;;5032034;28;20325;-64
2021/09/02 08:09:57;;;;;;;26.50;15.43;;;14.70;1.00;;;;;;5032134;28;20556;-64
2021/09/02 08:12:24;;;;;;;27.10;15.53;;;14.80;1.00;;;;;;5031911;28;20229;-66
2021/09/02 08:14:52;;;;;;;24.07;15.13;;;15.00;1.00;;;;;;5032061;28;20213;-65
2021/09/02 08:17:19;;;;;;;24.50;14.67;;;15.30;99.90;;;;;;5031912;28;20701;-65
2021/09/02 08:19:45;;;;;;;22.67;13.57;;;15.50;99.90;;;;;;5031794;28;20749;-65
2021/09/02 08:22:12;;;;;;;22.70;15.00;;;15.70;1.00;;;;;;5031989;28;20206;-63
2021/09/02 08:24:39;;;;;;;23.83;14.37;;;15.80;1.00;;;;;;5031746;28;20214;-63
2021/09/02 08:27:05;;;;;;;22.93;14.40;;;16.00;99.90;;;;;;5031601;28;20218;-63
2021/09/02 08:29:32;;;;;;;27.37;15.27;;;16.00;4.70;;;;;;5031667;28;20617;-63
2021/09/02 08:32:00;;;;;;;24.83;14.60;;;16.10;1.00;;;;;;5031403;28;20202;-64
2021/09/02 08:34:26;;;;;;;28.20;14.87;;;16.10;1.00;;;;;;5031321;28;20280;-63
2021/09/02 08:36:53;;;;;;;28.67;14.77;;;16.10;1.00;;;;;;5031867;28;20210;-64
2021/09/02 08:39:20;;;;;;;28.30;16.00;;;16.20;99.90;;;;;;5031678;28;20281;-64
2021/09/02 08:41:46;;;;;;;27.27;14.67;;;16.20;1.00;;;;;;5031838;28;20210;-64
2021/09/02 08:44:14;;;;;;;29.47;14.27;;;16.40;1.00;;;;;;5031758;28;20276;-64
2021/09/02 08:46:40;;;;;;;25.57;15.20;;;16.50;99.90;;;;;;5031501;28;20210;-63
2021/09/02 08:49:09;;;;;;;26.47;15.17;;;16.60;1.00;;;;;;5031694;28;20280;-63
2021/09/02 08:51:36;;;;;;;26.20;14.23;;;16.80;99.90;;;;;;5031537;28;20560;-63
2021/09/02 08:54:03;;;;;;;29.67;14.47;;;16.80;99.90;;;;;;5031171;28;20281;-63
2021/09/02 08:56:30;;;;;;;25.33;13.60;;;17.10;99.90;;;;;;5031083;28;20753;-64
2021/09/02 08:58:56;;;;;;;21.03;12.57;;;17.20;93.80;;;;;;5031806;28;20592;-64
2021/09/02 09:01:23;;;;;;;23.37;11.30;;;17.40;99.90;;;;;;5031687;28;20206;-64
2021/09/02 09:03:51;;;;;;;22.50;11.37;;;17.50;1.00;;;;;;5031077;28;20226;-64
2021/09/02 09:06:27;;;;;;;18.77;11.13;;;17.70;1.00;;;;;;5044186;28;20210;-62
2021/09/02 09:08:54;;;;;;;17.47;11.87;;;17.70;99.90;;;;;;5051524;28;20227;-63
2021/09/02 09:11:24;;;;;;;22.43;11.67;;;17.70;99.90;;;;;;5051618;28;20691;-60
2021/09/02 09:14:06;;;;;;;24.27;12.37;;;17.90;99.90;;;;;;5051508;28;20232;-61
2021/09/02 09:16:50;;;;;;;23.33;12.07;;;18.10;99.90;;;;;;5051907;28;20232;-61
2021/09/02 09:19:36;;;;;;;24.70;13.00;;;18.00;99.90;;;;;;5051512;28;20674;-61
2021/09/02 09:22:05;;;;;;;26.30;13.50;;;17.90;99.90;;;;;;5051459;28;20670;-61
2021/09/02 09:24:43;;;;;;;23.93;12.27;;;17.80;99.90;;;;;;5051196;28;20198;-60
2021/09/02 09:27:10;;;;;;;22.87;13.13;;;17.80;99.90;;;;;;5051537;28;20732;-60
2021/09/02 09:29:36;;;;;;;22.40;12.50;;;17.80;99.90;;;;;;5051872;28;20214;-61
2021/09/02 09:32:15;;;;;;;22.53;13.63;;;17.90;99.90;;;;;;5051755;28;20217;-61
2021/09/02 09:34:52;;;;;;;24.23;13.70;;;18.00;99.90;;;;;;5051095;28;20625;-61
2021/09/02 09:37:21;;;;;;;23.80;13.20;;;18.10;58.40;;;;;;5051502;28;20205;-62
2021/09/02 09:39:49;;;;;;;24.27;13.20;;;18.20;76.30;;;;;;5051478;28;20201;-62
2021/09/02 09:42:18;;;;;;;21.50;12.13;;;18.30;51.30;;;;;;5051307;28;20957;-62
2021/09/02 09:44:45;;;;;;;19.27;11.87;;;18.30;1.00;;;;;;5054685;28;20670;-62
2021/09/02 09:47:15;;;;;;;17.23;11.00;;;18.50;1.00;;;;;;5055403;28;20213;-62
2021/09/02 09:49:50;;;;;;;20.57;12.40;;;18.30;9.50;;;;;;5055190;28;20201;-61
2021/09/02 09:52:26;;;;;;;25.00;12.60;;;18.40;9.80;;;;;;5054981;28;20681;-62
2021/09/02 09:54:55;;;;;;;22.53;12.73;;;18.40;1.00;;;;;;5054590;28;20673;-62
2021/09/02 09:57:22;;;;;;;21.40;11.97;;;18.40;1.00;;;;;;5054848;28;20287;-62
2021/09/02 09:59:52;;;;;;;20.97;12.20;;;18.30;1.00;;;;;;5055138;28;20213;-62
2021/09/02 10:02:20;;;;;;;22.93;11.87;;;18.40;1.00;;;;;;5054850;28;20217;-61
2021/09/02 10:04:46;;;;;;;25.00;12.23;;;18.50;25.50;;;;;;5054488;28;20216;-62
2021/09/02 10:07:16;;;;;;;18.30;11.83;;;18.60;1.00;;;;;;5054548;28;20210;-62
2021/09/02 10:09:45;;;;;;;20.87;11.67;;;18.80;1.00;;;;;;5054847;28;20609;-62
2021/09/02 10:12:13;;;;;;;25.07;12.50;;;18.70;1.00;;;;;;5054968;28;20244;-62
2021/09/02 10:14:39;;;;;;;19.37;11.67;;;18.60;1.00;;;;;;5054266;28;20706;-62
2021/09/02 10:17:06;;;;;;;19.53;11.80;;;18.60;1.00;;;;;;5054615;28;20586;-61
2021/09/02 10:19:35;;;;;;;23.67;12.60;;;18.70;1.00;;;;;;5054577;28;20236;-62
2021/09/02 10:22:03;;;;;;;19.40;12.40;;;18.90;1.00;;;;;;5054664;28;20201;-62
2021/09/02 10:24:31;;;;;;;22.80;11.90;;;18.90;1.00;;;;;;5054307;28;20280;-61
2021/09/02 10:26:59;;;;;;;21.23;11.83;;;18.90;1.00;;;;;;5054582;28;20237;-62
2021/09/02 10:29:33;;;;;;;22.80;11.53;;;19.10;1.00;;;;;;5054708;28;20202;-62
2021/09/02 10:32:29;;;;;;;23.60;12.97;;;19.30;1.00;;;;;;5054216;28;20728;-63
2021/09/02 10:35:32;;;;;;;21.00;11.60;;;19.50;10.00;;;;;;5054093;28;20236;-62
2021/09/02 10:37:58;;;;;;;20.17;10.83;;;19.60;1.00;;;;;;5054192;28;20705;-62
2021/09/02 10:40:47;;;;;;;21.13;10.53;;;19.60;1.00;;;;;;5053971;28;20263;-62
2021/09/02 10:43:15;;;;;;;20.13;10.93;;;19.60;1.00;;;;;;5037724;28;20225;-62
2021/09/02 10:45:43;;;;;;;20.13;10.23;;;19.70;1.00;;;;;;5041918;28;20210;-62
2021/09/02 10:48:16;;;;;;;18.80;10.60;;;19.80;1.00;;;;;;5034065;28;20675;-63
2021/09/02 10:50:44;;;;;;;19.63;11.47;;;19.80;1.00;;;;;;5034011;28;20256;-63
2021/09/02 10:53:12;;;;;;;15.97;10.10;;;19.40;1.00;;;;;;5033266;28;20245;-64
2021/09/02 10:55:41;;;;;;;16.30;9.63;;;19.60;1.00;;;;;;5032916;28;20260;-64
2021/09/02 10:58:09;;;;;;;19.13;10.30;;;19.80;1.00;;;;;;5033754;28;20321;-63
2021/09/02 11:00:39;;;;;;;16.90;9.57;;;19.80;1.00;;;;;;5033942;28;20210;-61
2021/09/02 11:03:13;;;;;;;19.20;9.77;;;19.90;1.00;;;;;;5033290;28;20269;-64
2021/09/02 11:05:41;;;;;;;24.10;12.20;;;20.00;1.00;;;;;;5033554;28;20210;-64
2021/09/02 11:08:08;;;;;;;16.43;10.03;;;20.20;1.00;;;;;;5033567;28;20208;-65
2021/09/02 11:10:35;;;;;;;20.10;10.70;;;20.40;1.00;;;;;;5033427;28;20210;-64
2021/09/02 11:13:04;;;;;;;16.03;10.40;;;20.60;1.00;;;;;;5033027;28;20264;-64
2021/09/02 11:15:31;;;;;;;16.53;10.07;;;20.70;1.00;;;;;;5033220;28;20266;-62
2021/09/02 11:18:00;;;;;;;12.97;8.87;;;20.60;1.00;;;;;;5033587;28;20210;-62
2021/09/02 11:20:29;;;;;;;18.90;11.57;;;20.60;1.00;;;;;;5032858;28;20214;-62
2021/09/02 11:23:08;;;;;;;16.67;9.40;;;20.50;1.00;;;;;;5032619;28;20272;-62
2021/09/02 11:25:43;;;;;;;15.97;10.67;;;20.40;1.00;;;;;;5033097;28;20206;-63
2021/09/02 11:28:10;;;;;;;15.83;9.67;;;20.30;1.00;;;;;;5032279;28;20209;-63
2021/09/02 11:30:37;;;;;;;18.20;10.23;;;20.30;1.00;;;;;;5032881;28;20213;-62
2021/09/02 11:33:07;;;;;;;16.10;8.80;;;20.20;99.90;;;;;;5032387;28;20579;-64
2021/09/02 11:35:34;;;;;;;17.90;9.73;;;20.40;1.00;;;;;;5033026;28;20222;-64
2021/09/02 11:38:01;;;;;;;16.37;9.50;;;20.40;1.00;;;;;;5032333;28;20268;-63
2021/09/02 11:40:29;;;;;;;16.30;10.67;;;20.40;1.00;;;;;;5032905;28;20284;-63
2021/09/02 11:42:58;;;;;;;17.37;10.13;;;20.30;1.00;;;;;;5032363;28;20291;-63
2021/09/02 11:45:26;;;;;;;16.17;9.70;;;20.30;1.00;;;;;;5032608;28;20206;-62
2021/09/02 11:47:53;;;;;;;17.10;10.23;;;20.30;1.00;;;;;;5032965;28;20206;-63
2021/09/02 11:50:23;;;;;;;13.60;8.63;;;20.30;1.00;;;;;;5032407;28;20213;-63
2021/09/02 11:52:52;;;;;;;17.57;10.23;;;20.40;1.00;;;;;;5032317;28;20230;-63
2021/09/02 11:55:30;;;;;;;16.07;9.77;;;20.40;99.90;;;;;;5032265;28;20225;-64
2021/09/02 11:57:59;;;;;;;18.60;10.33;;;20.50;1.00;;;;;;5032935;28;20210;-64
2021/09/02 12:00:26;;;;;;;19.20;10.47;;;20.70;1.00;;;;;;5032424;28;20210;-64
2021/09/02 12:02:55;;;;;;;16.13;9.90;;;21.00;1.00;;;;;;5032187;28;20234;-63
2021/09/02 12:05:26;;;;;;;17.90;10.43;;;21.20;1.00;;;;;;5032277;28;20209;-63
2021/09/02 12:07:56;;;;;;;17.73;10.40;;;21.30;99.90;;;;;;5031955;28;20576;-62
2021/09/02 12:10:23;;;;;;;15.33;9.50;;;21.50;99.90;;;;;;5032964;28;20237;-63
2021/09/02 12:12:50;;;;;;;15.53;10.07;;;21.40;99.90;;;;;;5031981;28;20721;-62
2021/09/02 12:15:26;;;;;;;14.70;9.53;;;21.50;99.90;;;;;;5032155;28;20225;-62
2021/09/02 12:18:10;;;;;;;17.13;10.10;;;21.20;99.90;;;;;;5032471;28;20606;-62
2021/09/02 12:20:40;;;;;;;14.87;9.67;;;21.00;99.90;;;;;;5032250;28;20218;-63
2021/09/02 12:23:20;;;;;;;17.20;10.13;;;21.10;99.90;;;;;;5031921;28;20280;-63
2021/09/02 12:26:01;;;;;;;21.40;13.57;;;21.30;1.00;;;;;;5031881;28;20206;-63
2021/09/02 12:28:33;;;;;;;16.07;10.73;;;21.30;99.90;;;;;;5031790;28;20222;-63
2021/09/02 12:31:12;;;;;;;16.40;10.67;;;21.30;99.90;;;;;;5032315;28;20289;-65
2021/09/02 12:34:04;;;;;;;20.60;10.03;;;21.30;99.90;;;;;;5031477;28;20234;-64
2021/09/02 12:36:33;;;;;;;15.13;9.80;;;21.40;99.90;;;;;;5031862;28;20206;-64
2021/09/02 12:39:16;;;;;;;18.67;10.53;;;21.50;99.90;;;;;;5031650;28;20210;-66